Time;durP1;ratioP1;P1;durP2;ratioP2;P2;SDS_P1;SDS_P2;PMS_P1;PMS_P2;Temp;Humidity;BMP_temperature;BMP_pressure;BME280_temperature;BME280_humidity;BME280_pressure;Samples;Min_cycle;Max_cycle;Signal;HPM_P1;HPM_P2
2022/09/13 00:03:11;;;;;;;0.60;0.60;;;;;;;;;;12500086;28;20060;-75
2022/09/13 00:09:13;;;;;;;0.80;0.80;;;;;;;;;;12480613;28;20037;-75
2022/09/13 00:15:15;;;;;;;0.82;0.80;;;;;;;;;;12499611;28;20411;-75
2022/09/13 00:21:17;;;;;;;;;;;;;;;;;;12499344;28;20026;-75
2022/09/13 00:27:19;;;;;;;2.20;1.23;;;;;;;;;;12499039;28;19928;-75
2022/09/13 00:33:20;;;;;;;0.80;0.80;;;;;;;;;;12480119;28;20052;-75
2022/09/13 00:39:22;;;;;;;0.88;0.88;;;;;;;;;;12480335;28;20033;-75
2022/09/13 00:45:24;;;;;;;1.10;1.02;;;;;;;;;;12497016;28;20053;-75
2022/09/13 00:51:26;;;;;;;1.13;1.10;;;;;;;;;;12497505;28;20494;-75
2022/09/13 00:57:28;;;;;;;1.08;0.90;;;;;;;;;;12479167;28;20479;-75
2022/09/13 01:03:31;;;;;;;1.02;1.02;;;;;;;;;;12496505;28;20544;-75
2022/09/13 01:09:35;;;;;;;1.63;1.52;;;;;;;;;;12478253;28;20518;-75
2022/09/13 01:15:37;;;;;;;1.10;1.10;;;;;;;;;;12478743;28;20509;-75
2022/09/13 01:21:51;;;;;;;1.50;1.40;;;;;;;;;;12495966;28;20033;-75
2022/09/13 01:28:04;;;;;;;1.50;1.40;;;;;;;;;;12461294;28;20307;-75
2022/09/13 01:34:16;;;;;;;1.50;1.40;;;;;;;;;;12496114;28;20037;-75
2022/09/13 01:40:33;;;;;;;1.40;1.30;;;;;;;;;;12513782;28;20038;-75
2022/09/13 01:46:46;;;;;;;1.30;1.20;;;;;;;;;;12494984;28;20041;-75
2022/09/13 01:52:51;;;;;;;1.10;1.10;;;;;;;;;;12494892;28;20041;-75
2022/09/13 01:58:53;;;;;;;1.20;1.20;;;;;;;;;;12494565;28;20030;-75
2022/09/13 02:04:58;;;;;;;1.52;1.40;;;;;;;;;;12477343;28;20049;-75
2022/09/13 02:11:04;;;;;;;1.50;1.40;;;;;;;;;;12494471;28;20061;-75
2022/09/13 02:17:12;;;;;;;1.75;1.65;;;;;;;;;;12476979;28;20041;-76
2022/09/13 02:23:16;;;;;;;1.52;1.42;;;;;;;;;;12476608;28;20029;-75
2022/09/13 02:29:20;;;;;;;1.85;1.75;;;;;;;;;;12476213;28;20052;-75
2022/09/13 02:35:24;;;;;;;1.65;1.55;;;;;;;;;;12500923;28;20510;-75
2022/09/13 02:41:35;;;;;;;1.90;1.80;;;;;;;;;;12486086;28;20487;-75
2022/09/13 02:48:09;;;;;;;1.60;1.50;;;;;;;;;;12502866;28;20049;-75
2022/09/13 02:54:10;;;;;;;2.17;1.98;;;;;;;;;;12453340;28;20033;-75
2022/09/13 03:00:12;;;;;;;1.73;1.63;;;;;;;;;;12484614;28;20029;-75
2022/09/13 03:06:21;;;;;;;1.48;1.38;;;;;;;;;;12501981;28;20046;-75
2022/09/13 03:12:42;;;;;;;1.67;1.58;;;;;;;;;;12483930;28;20049;-75
2022/09/13 03:19:02;;;;;;;2.00;1.90;;;;;;;;;;12501445;28;20029;-74
2022/09/13 03:25:12;;;;;;;2.20;2.10;;;;;;;;;;12501073;28;20052;-76
2022/09/13 03:31:21;;;;;;;1.90;1.80;;;;;;;;;;12500893;28;20042;-76
2022/09/13 03:37:23;;;;;;;2.03;1.92;;;;;;;;;;12466868;28;20063;-74
2022/09/13 03:43:29;;;;;;;2.00;1.83;;;;;;;;;;12482334;28;20483;-75
2022/09/13 03:49:31;;;;;;;2.00;1.90;;;;;;;;;;12482029;28;20048;-75
2022/09/13 03:55:34;;;;;;;1.70;1.60;;;;;;;;;;12499588;28;20033;-75
2022/09/13 04:01:36;;;;;;;2.78;1.90;;;;;;;;;;12481433;28;20033;-75
2022/09/13 04:07:38;;;;;;;2.17;2.00;;;;;;;;;;12481561;28;20502;-75
2022/09/13 04:13:40;;;;;;;1.60;1.50;;;;;;;;;;12522552;28;20053;-75
2022/09/13 04:19:44;;;;;;;1.40;1.30;;;;;;;;;;12503936;28;20033;-75
2022/09/13 04:25:45;;;;;;;1.77;1.67;;;;;;;;;;12498332;28;20373;-75
2022/09/13 04:31:48;;;;;;;1.50;1.40;;;;;;;;;;12464799;28;20030;-75
2022/09/13 04:37:49;;;;;;;;;;;;;;;;;;12497857;28;20487;-75
2022/09/13 04:43:51;;;;;;;1.95;1.50;;;;;;;;;;12497049;28;20358;-75
2022/09/13 04:49:53;;;;;;;2.10;1.90;;;;;;;;;;12497185;28;20025;-75
2022/09/13 04:55:55;;;;;;;;;;;;;;;;;;12481703;28;20044;-75
2022/09/13 05:01:57;;;;;;;1.58;1.48;;;;;;;;;;12478801;28;19909;-75
2022/09/13 05:07:59;;;;;;;2.58;2.15;;;;;;;;;;12495867;28;20049;-75
2022/09/13 05:14:01;;;;;;;1.80;1.70;;;;;;;;;;12496242;28;20049;-75
2022/09/13 05:20:04;;;;;;;1.60;1.50;;;;;;;;;;12495156;28;20029;-76
2022/09/13 05:26:06;;;;;;;2.75;1.90;;;;;;;;;;12461260;28;20071;-75
2022/09/13 05:32:08;;;;;;;2.63;2.42;;;;;;;;;;12495804;28;20045;-75
2022/09/13 05:38:09;;;;;;;4.80;3.53;;;;;;;;;;12492366;28;20045;-75
2022/09/13 05:44:11;;;;;;;4.67;3.47;;;;;;;;;;12494728;28;20044;-75
2022/09/13 05:50:13;;;;;;;4.03;3.25;;;;;;;;;;12472222;28;20025;-74
2022/09/13 05:56:16;;;;;;;3.77;2.73;;;;;;;;;;12508302;28;20021;-75
2022/09/13 06:02:18;;;;;;;3.45;3.10;;;;;;;;;;12481732;28;20080;-76
2022/09/13 06:08:19;;;;;;;3.17;2.07;;;;;;;;;;12495360;28;20487;-76
2022/09/13 06:14:21;;;;;;;2.80;2.37;;;;;;;;;;12511163;28;20033;-75
2022/09/13 06:20:23;;;;;;;2.13;1.87;;;;;;;;;;12506847;28;20067;-75
2022/09/13 06:26:26;;;;;;;3.40;2.58;;;;;;;;;;12491279;28;20502;-74
2022/09/13 06:32:27;;;;;;;2.50;2.13;;;;;;;;;;12507211;28;20026;-74
2022/09/13 06:38:29;;;;;;;1.90;1.63;;;;;;;;;;12495500;28;20743;-74
2022/09/13 06:44:31;;;;;;;1.58;1.48;;;;;;;;;;12523214;28;20662;-73
2022/09/13 06:50:32;;;;;;;1.58;1.38;;;;;;;;;;12523488;28;20180;-73
2022/09/13 06:56:35;;;;;;;1.65;1.55;;;;;;;;;;12514939;28;20033;-74
2022/09/13 07:02:37;;;;;;;1.33;1.23;;;;;;;;;;12504410;28;20033;-74
2022/09/13 07:08:40;;;;;;;3.10;1.95;;;;;;;;;;12492748;28;20384;-74
2022/09/13 07:14:42;;;;;;;0.95;0.90;;;;;;;;;;12500205;28;20028;-74
2022/09/13 07:20:43;;;;;;;0.70;0.70;;;;;;;;;;12489425;28;20029;-75
2022/09/13 07:26:45;;;;;;;1.98;1.50;;;;;;;;;;12513201;28;20675;-74
2022/09/13 07:32:47;;;;;;;1.40;1.30;;;;;;;;;;12494826;28;20396;-74
2022/09/13 07:38:49;;;;;;;1.33;0.77;;;;;;;;;;12532642;28;20170;-74
2022/09/13 07:44:51;;;;;;;;;;;;;;;;;;12501970;28;20042;-74
2022/09/13 07:51:11;;;;;;;3.80;1.05;;;;;;;;;;12513915;28;20282;-75
2022/09/13 07:57:13;;;;;;;0.98;0.77;;;;;;;;;;12507093;28;20395;-74
2022/09/13 08:03:15;;;;;;;2.33;1.10;;;;;;;;;;12511817;28;20025;-74
2022/09/13 08:09:17;;;;;;;1.80;1.30;;;;;;;;;;12480627;28;20057;-74
2022/09/13 08:15:19;;;;;;;0.70;0.70;;;;;;;;;;12496745;28;20026;-75
2022/09/13 08:21:21;;;;;;;1.23;0.95;;;;;;;;;;12503463;28;20029;-75
2022/09/13 08:27:23;;;;;;;1.33;1.20;;;;;;;;;;12490384;28;20041;-75
2022/09/13 08:33:25;;;;;;;2.30;1.02;;;;;;;;;;12492669;28;20037;-75
2022/09/13 08:39:26;;;;;;;1.00;0.90;;;;;;;;;;12480499;28;20475;-75
2022/09/13 08:45:28;;;;;;;2.10;1.10;;;;;;;;;;12515015;28;20349;-74
2022/09/13 08:51:36;;;;;;;0.82;0.65;;;;;;;;;;12493343;28;20029;-74
2022/09/13 08:57:43;;;;;;;2.75;0.90;;;;;;;;;;12496586;28;20045;-75
2022/09/13 09:03:48;;;;;;;1.38;0.80;;;;;;;;;;12487529;28;20029;-73
2022/09/13 09:09:50;;;;;;;1.40;0.82;;;;;;;;;;12509918;28;20052;-74
2022/09/13 09:15:56;;;;;;;1.35;0.80;;;;;;;;;;12481086;28;20024;-74
2022/09/13 09:21:58;;;;;;;1.20;0.90;;;;;;;;;;12481621;28;20037;-74
2022/09/13 09:28:00;;;;;;;0.70;0.60;;;;;;;;;;12499584;28;20407;-74
2022/09/13 09:34:21;;;;;;;1.08;0.60;;;;;;;;;;12507566;28;20033;-74
2022/09/13 09:40:23;;;;;;;1.13;0.50;;;;;;;;;;12506225;28;20037;-74
2022/09/13 09:46:24;;;;;;;;;;;;;;;;;;12473478;28;20490;-74
2022/09/13 09:52:43;;;;;;;0.50;0.40;;;;;;;;;;12504821;28;19917;-75
2022/09/13 09:58:45;;;;;;;0.35;0.20;;;;;;;;;;12495572;28;20056;-74
2022/09/13 10:04:55;;;;;;;0.20;0.20;;;;;;;;;;12484017;28;20056;-75
2022/09/13 10:11:01;;;;;;;1.80;0.35;;;;;;;;;;12496868;28;20060;-76
2022/09/13 10:17:23;;;;;;;0.60;0.30;;;;;;;;;;12481263;28;20030;-74
2022/09/13 10:23:26;;;;;;;0.50;0.25;;;;;;;;;;12506474;28;20029;-75
2022/09/13 10:29:28;;;;;;;0.35;0.15;;;;;;;;;;12495623;28;20505;-75
2022/09/13 10:35:30;;;;;;;1.23;0.50;;;;;;;;;;12515325;28;20040;-75
2022/09/13 10:41:39;;;;;;;0.52;0.32;;;;;;;;;;12538080;28;20037;-75
2022/09/13 10:47:45;;;;;;;0.80;0.40;;;;;;;;;;12542421;28;20041;-75
2022/09/13 10:53:47;;;;;;;0.40;0.40;;;;;;;;;;12478425;28;20064;-75
2022/09/13 10:59:53;;;;;;;0.68;0.20;;;;;;;;;;12484447;28;20038;-74
2022/09/13 11:06:00;;;;;;;0.28;0.28;;;;;;;;;;12551073;28;20045;-74
2022/09/13 11:12:17;;;;;;;0.63;0.28;;;;;;;;;;12539777;28;20075;-73
2022/09/13 11:18:18;;;;;;;0.75;0.50;;;;;;;;;;12605899;28;20037;-73
2022/09/13 11:24:28;;;;;;;0.57;0.47;;;;;;;;;;12612938;28;20387;-74
2022/09/13 11:30:32;;;;;;;0.88;0.28;;;;;;;;;;12598686;28;20041;-74
2022/09/13 11:36:38;;;;;;;0.55;0.55;;;;;;;;;;12598767;28;20039;-74
2022/09/13 11:42:40;;;;;;;0.40;0.40;;;;;;;;;;12599297;28;20033;-74
2022/09/13 11:48:52;;;;;;;0.70;0.50;;;;;;;;;;12579781;28;20040;-75
2022/09/13 11:55:14;;;;;;;0.60;0.60;;;;;;;;;;12596970;28;20055;-75
2022/09/13 12:01:30;;;;;;;1.20;0.50;;;;;;;;;;12597454;28;20374;-75
2022/09/13 12:07:42;;;;;;;0.55;0.30;;;;;;;;;;12578003;28;20044;-75
2022/09/13 12:13:52;;;;;;;0.60;0.30;;;;;;;;;;12579068;28;20399;-75
2022/09/13 12:19:56;;;;;;;0.40;0.40;;;;;;;;;;12597048;28;20036;-75
2022/09/13 12:26:00;;;;;;;2.10;0.50;;;;;;;;;;12597287;28;20490;-75
2022/09/13 12:32:03;;;;;;;1.10;0.40;;;;;;;;;;12597173;28;20036;-74
2022/09/13 12:38:11;;;;;;;0.20;0.20;;;;;;;;;;12562473;28;20505;-74
2022/09/13 12:44:28;;;;;;;0.93;0.40;;;;;;;;;;12596251;28;20036;-74
2022/09/13 12:50:31;;;;;;;0.52;0.50;;;;;;;;;;12578405;28;20036;-74
2022/09/13 12:56:52;;;;;;;0.40;0.32;;;;;;;;;;12596181;28;20024;-74
2022/09/13 13:03:10;;;;;;;1.35;0.57;;;;;;;;;;12595494;28;20501;-74
2022/09/13 13:09:21;;;;;;;0.40;0.30;;;;;;;;;;12577621;28;20520;-74
2022/09/13 13:15:26;;;;;;;0.73;0.40;;;;;;;;;;12594957;28;20048;-74
2022/09/13 13:21:28;;;;;;;2.05;0.40;;;;;;;;;;12594855;28;20402;-74
2022/09/13 13:27:35;;;;;;;0.22;0.22;;;;;;;;;;12576731;28;20513;-75
2022/09/13 13:34:08;;;;;;;0.40;0.30;;;;;;;;;;12594396;28;20036;-75
2022/09/13 13:40:21;;;;;;;0.35;0.20;;;;;;;;;;12508821;28;20053;-74
2022/09/13 13:46:25;;;;;;;0.52;0.20;;;;;;;;;;12576202;28;20044;-74
2022/09/13 13:52:37;;;;;;;0.95;0.40;;;;;;;;;;12594453;28;20040;-74
2022/09/13 13:58:49;;;;;;;0.50;0.47;;;;;;;;;;12575827;28;20402;-74
2022/09/13 14:04:56;;;;;;;0.73;0.50;;;;;;;;;;12559175;28;20045;-74
2022/09/13 14:11:14;;;;;;;0.30;0.20;;;;;;;;;;12559645;28;20614;-74
2022/09/13 14:17:35;;;;;;;1.35;0.30;;;;;;;;;;12575220;28;20036;-74
2022/09/13 14:23:37;;;;;;;0.20;0.20;;;;;;;;;;12575427;28;20028;-75
2022/09/13 14:29:39;;;;;;;0.20;0.20;;;;;;;;;;12598067;28;20060;-74
2022/09/13 14:35:41;;;;;;;0.70;0.25;;;;;;;;;;12584759;28;20074;-75
2022/09/13 14:41:42;;;;;;;0.38;0.30;;;;;;;;;;12585368;28;20470;-74
2022/09/13 14:47:53;;;;;;;0.95;0.35;;;;;;;;;;12584646;28;20041;-75
2022/09/13 14:53:57;;;;;;;0.20;0.20;;;;;;;;;;12602020;28;20029;-75
2022/09/13 15:00:02;;;;;;;0.75;0.47;;;;;;;;;;12602332;28;20045;-74
2022/09/13 15:06:04;;;;;;;0.77;0.30;;;;;;;;;;12583243;28;20071;-75
2022/09/13 15:12:20;;;;;;;0.38;0.30;;;;;;;;;;12584073;28;20065;-74
2022/09/13 15:18:24;;;;;;;0.57;0.30;;;;;;;;;;12582957;28;20032;-75
2022/09/13 15:24:28;;;;;;;0.65;0.35;;;;;;;;;;12582799;28;20041;-75
2022/09/13 15:30:31;;;;;;;0.32;0.20;;;;;;;;;;12600818;28;20037;-74
2022/09/13 15:36:34;;;;;;;0.45;0.20;;;;;;;;;;12599774;28;20031;-75
2022/09/13 15:42:35;;;;;;;0.47;0.30;;;;;;;;;;12600741;28;20047;-74
2022/09/13 15:48:37;;;;;;;0.65;0.17;;;;;;;;;;12599586;28;20045;-74
2022/09/13 15:54:40;;;;;;;0.35;0.20;;;;;;;;;;12582301;28;20051;-74
2022/09/13 16:00:42;;;;;;;0.98;0.20;;;;;;;;;;12600896;28;20028;-74
2022/09/13 16:06:44;;;;;;;1.25;0.20;;;;;;;;;;12627080;28;20048;-73
2022/09/13 16:12:46;;;;;;;0.40;0.30;;;;;;;;;;12633302;28;20053;-74
2022/09/13 16:18:48;;;;;;;1.85;0.30;;;;;;;;;;12580544;28;20383;-75
2022/09/13 16:24:50;;;;;;;0.28;0.13;;;;;;;;;;12580615;28;20052;-74
2022/09/13 16:30:52;;;;;;;0.63;0.20;;;;;;;;;;12580113;28;20024;-75
2022/09/13 16:36:54;;;;;;;0.30;0.30;;;;;;;;;;12597911;28;20466;-74
2022/09/13 16:42:56;;;;;;;0.63;0.20;;;;;;;;;;12579660;28;20043;-75
2022/09/13 16:48:58;;;;;;;0.55;0.10;;;;;;;;;;12596573;28;20032;-75
2022/09/13 16:54:59;;;;;;;0.20;0.20;;;;;;;;;;12577525;28;20384;-75
2022/09/13 17:01:03;;;;;;;0.85;0.13;;;;;;;;;;12595989;28;20037;-75
2022/09/13 17:07:06;;;;;;;0.28;0.28;;;;;;;;;;12595766;28;20056;-75
2022/09/13 17:13:08;;;;;;;0.50;0.20;;;;;;;;;;12595725;28;20654;-74
2022/09/13 17:19:16;;;;;;;0.38;0.20;;;;;;;;;;12576771;28;20033;-74
2022/09/13 17:25:19;;;;;;;0.20;0.10;;;;;;;;;;12576930;28;20049;-74
2022/09/13 17:31:21;;;;;;;0.17;0.17;;;;;;;;;;12576743;28;20394;-74
2022/09/13 17:37:23;;;;;;;;;;;;;;;;;;12594655;28;20043;-75
2022/09/13 17:43:24;;;;;;;1.33;0.45;;;;;;;;;;12577006;28;19912;-74
2022/09/13 17:49:26;;;;;;;1.00;0.60;;;;;;;;;;12593783;28;20047;-74
2022/09/13 17:55:28;;;;;;;;;;;;;;;;;;12594366;28;20025;-74
2022/09/13 18:01:29;;;;;;;0.50;0.33;;;;;;;;;;12593163;28;19916;-74
2022/09/13 18:07:31;;;;;;;0.38;0.30;;;;;;;;;;12575803;28;20032;-74
2022/09/13 18:13:33;;;;;;;1.10;0.20;;;;;;;;;;12575956;28;20053;-74
2022/09/13 18:19:35;;;;;;;0.15;0.10;;;;;;;;;;12575431;28;20036;-75
2022/09/13 18:25:37;;;;;;;;;;;;;;;;;;12593346;28;20479;-75
2022/09/13 18:31:39;;;;;;;1.85;0.30;;;;;;;;;;12576234;28;19912;-75
2022/09/13 18:37:41;;;;;;;0.30;0.20;;;;;;;;;;12575882;28;20063;-75
2022/09/13 18:43:42;;;;;;;;;;;;;;;;;;12576188;28;20158;-75
2022/09/13 18:49:44;;;;;;;0.80;0.20;;;;;;;;;;12575053;28;19924;-75
2022/09/13 18:55:46;;;;;;;;;;;;;;;;;;12593101;28;20043;-74
2022/09/13 19:01:48;;;;;;;0.95;0.40;;;;;;;;;;12575190;28;19909;-75
2022/09/13 19:07:50;;;;;;;1.20;0.50;;;;;;;;;;12592196;28;20041;-74
2022/09/13 19:13:51;;;;;;;;;;;;;;;;;;12594900;28;20044;-73
2022/09/13 19:19:53;;;;;;;0.97;0.43;;;;;;;;;;12566616;28;19916;-74
2022/09/13 19:26:01;;;;;;;1.25;0.47;;;;;;;;;;12600669;28;20040;-75
2022/09/13 19:32:03;;;;;;;1.65;0.50;;;;;;;;;;12600660;28;20041;-73
2022/09/13 19:38:04;;;;;;;0.50;0.50;;;;;;;;;;12599952;28;20048;-74
2022/09/13 19:44:07;;;;;;;0.43;0.43;;;;;;;;;;12599834;28;20032;-73
2022/09/13 19:50:09;;;;;;;0.65;0.65;;;;;;;;;;12565079;28;20059;-74
2022/09/13 19:56:15;;;;;;;0.68;0.50;;;;;;;;;;12599382;28;20044;-74
2022/09/13 20:02:17;;;;;;;0.50;0.40;;;;;;;;;;12601844;28;20040;-75
2022/09/13 20:08:23;;;;;;;0.90;0.50;;;;;;;;;;12619116;28;20182;-75
2022/09/13 20:14:26;;;;;;;1.00;0.50;;;;;;;;;;12580636;28;20055;-75
2022/09/13 20:20:30;;;;;;;0.82;0.63;;;;;;;;;;12564724;28;20139;-74
2022/09/13 20:26:34;;;;;;;0.55;0.50;;;;;;;;;;12578749;28;20052;-74
2022/09/13 20:32:36;;;;;;;0.40;0.40;;;;;;;;;;12597516;28;20032;-74
2022/09/13 20:38:38;;;;;;;0.70;0.40;;;;;;;;;;12597574;28;20032;-74
2022/09/13 20:44:41;;;;;;;;;;;;;;;;;;12579659;28;20036;-74
2022/09/13 20:50:43;;;;;;;1.45;0.52;;;;;;;;;;12580386;28;19931;-74
2022/09/13 20:56:45;;;;;;;;;;;;;;;;;;12606026;28;20107;-73
2022/09/13 21:02:47;;;;;;;1.50;0.70;;;;;;;;;;12587672;28;19912;-73
2022/09/13 21:08:52;;;;;;;0.75;0.50;;;;;;;;;;12594654;28;20045;-75
2022/09/13 21:14:54;;;;;;;1.13;0.60;;;;;;;;;;12596579;28;20386;-74
2022/09/13 21:20:57;;;;;;;0.93;0.68;;;;;;;;;;12594936;28;20067;-74
2022/09/13 21:26:58;;;;;;;1.92;0.70;;;;;;;;;;12577832;28;20045;-74
2022/09/13 21:33:00;;;;;;;0.80;0.80;;;;;;;;;;12594840;28;20536;-74
2022/09/13 21:39:02;;;;;;;1.05;0.80;;;;;;;;;;12594787;28;20500;-74
2022/09/13 21:45:04;;;;;;;1.30;1.00;;;;;;;;;;12594453;28;20049;-74
2022/09/13 21:51:20;;;;;;;1.08;0.88;;;;;;;;;;12594286;28;20044;-74
2022/09/13 21:57:22;;;;;;;1.55;0.88;;;;;;;;;;12577387;28;20036;-74
2022/09/13 22:03:23;;;;;;;;;;;;;;;;;;12594506;28;20040;-74
2022/09/13 22:09:26;;;;;;;1.08;1.05;;;;;;;;;;12593601;28;20378;-74
2022/09/13 22:15:28;;;;;;;2.33;1.23;;;;;;;;;;12593645;28;20032;-74
2022/09/13 22:21:32;;;;;;;1.58;1.13;;;;;;;;;;12593660;28;20032;-74
2022/09/13 22:27:35;;;;;;;1.10;1.00;;;;;;;;;;12575397;28;20041;-75
2022/09/13 22:33:37;;;;;;;0.75;0.75;;;;;;;;;;12593595;28;20035;-75
2022/09/13 22:39:38;;;;;;;1.08;1.00;;;;;;;;;;12594385;28;20029;-75
2022/09/13 22:45:40;;;;;;;1.10;1.10;;;;;;;;;;12598557;28;20050;-75
2022/09/13 22:51:43;;;;;;;1.58;1.00;;;;;;;;;;12581349;28;20409;-75
2022/09/13 22:57:45;;;;;;;1.42;1.02;;;;;;;;;;12602444;28;20035;-75
2022/09/13 23:03:47;;;;;;;1.38;1.00;;;;;;;;;;12567474;28;20055;-74
2022/09/13 23:09:49;;;;;;;1.02;1.02;;;;;;;;;;12601724;28;20052;-75
2022/09/13 23:15:51;;;;;;;2.83;1.58;;;;;;;;;;12601217;28;20033;-75
2022/09/13 23:21:52;;;;;;;1.10;1.00;;;;;;;;;;12583365;28;20044;-75
2022/09/13 23:27:54;;;;;;;1.10;1.10;;;;;;;;;;12584440;28;20044;-75
2022/09/13 23:33:58;;;;;;;1.33;1.10;;;;;;;;;;12600553;28;20391;-75
2022/09/13 23:40:02;;;;;;;1.20;1.10;;;;;;;;;;12582989;28;20055;-75
2022/09/13 23:46:03;;;;;;;3.47;1.25;;;;;;;;;;12582004;28;20383;-75
2022/09/13 23:52:05;;;;;;;1.25;1.25;;;;;;;;;;12601219;28;20032;-75
2022/09/13 23:58:07;;;;;;;1.42;1.40;;;;;;;;;;12565019;28;20037;-74
